N68FA KFRG-KACK
Flight info
| Callsign | N68FA |
|---|---|
| Flight time | N/A |
| Altitude | 7000 |
| Route | DPK HTO |
| Aircraft | C208/L-SDFGR/C |
Departure
| Time | 2026-04-23 16:36 |
|---|---|
| Airport | Republic Airport (KFRG) |
Arrival
| Time | N/A |
|---|---|
| Airport | Nantucket Memorial Airport (KACK) |
| Time | Latitude | Longitude | Altitude | Speed | Heading |
|---|---|---|---|---|---|
| 2026-04-23 16:10 | 40.73097 | -73.41165 | 80 ft | 0 kts | 255° |
| 2026-04-23 16:30 | 40.73090 | -73.41175 | 86 ft | 7 kts | 200° |
| 2026-04-23 16:30 | 40.72997 | -73.41148 | 84 ft | 17 kts | 166° |
| 2026-04-23 16:30 | 40.72887 | -73.41124 | 82 ft | 13 kts | 192° |
| 2026-04-23 16:31 | 40.72835 | -73.41076 | 85 ft | 6 kts | 132° |
| 2026-04-23 16:31 | 40.72807 | -73.41036 | 82 ft | 10 kts | 132° |
| 2026-04-23 16:31 | 40.72715 | -73.40902 | 71 ft | 29 kts | 132° |
| 2026-04-23 16:31 | 40.72591 | -73.40723 | 74 ft | 21 kts | 131° |
| 2026-04-23 16:32 | 40.72513 | -73.40608 | 68 ft | 14 kts | 131° |
| 2026-04-23 16:32 | 40.72409 | -73.40459 | 73 ft | 23 kts | 131° |
| 2026-04-23 16:32 | 40.72329 | -73.40336 | 72 ft | 13 kts | 131° |
| 2026-04-23 16:32 | 40.72289 | -73.40282 | 74 ft | 4 kts | 169° |
| 2026-04-23 16:33 | 40.72281 | -73.40282 | 74 ft | 0 kts | 187° |
| 2026-04-23 16:35 | 40.72235 | -73.40323 | 73 ft | 21 kts | 223° |
| 2026-04-23 16:35 | 40.72291 | -73.40477 | 68 ft | 37 kts | 312° |
| 2026-04-23 16:35 | 40.72593 | -73.40909 | 137 ft | 80 kts | 314° |
| 2026-04-23 16:36 | 40.72967 | -73.41473 | 468 ft | 84 kts | 313° |
| 2026-04-23 16:36 | 40.73380 | -73.42036 | 798 ft | 89 kts | 320° |
| 2026-04-23 16:36 | 40.73859 | -73.42524 | 1205 ft | 84 kts | 327° |
| 2026-04-23 16:36 | 40.74412 | -73.42233 | 1513 ft | 107 kts | 61° |
| 2026-04-23 16:37 | 40.74528 | -73.41241 | 1988 ft | 107 kts | 85° |
| 2026-04-23 16:37 | 40.74473 | -73.40271 | 2333 ft | 103 kts | 92° |
| 2026-04-23 16:37 | 40.74527 | -73.39329 | 2519 ft | 116 kts | 72° |
| 2026-04-23 16:37 | 40.74702 | -73.38253 | 2867 ft | 124 kts | 72° |
| 2026-04-23 16:38 | 40.74980 | -73.37207 | 3335 ft | 116 kts | 58° |
| 2026-04-23 16:38 | 40.75277 | -73.36228 | 3778 ft | 115 kts | 56° |
| 2026-04-23 16:38 | 40.75736 | -73.35461 | 4195 ft | 100 kts | 12° |
| 2026-04-23 16:38 | 40.76359 | -73.35075 | 4550 ft | 107 kts | 34° |
| 2026-04-23 16:39 | 40.76844 | -73.34280 | 4875 ft | 113 kts | 39° |
| 2026-04-23 16:39 | 40.77351 | -73.33472 | 5184 ft | 116 kts | 40° |
| 2026-04-23 16:39 | 40.77685 | -73.32913 | 5390 ft | 118 kts | 40° |
| 2026-04-23 16:39 | 40.78346 | -73.31765 | 5806 ft | 119 kts | 40° |
| 2026-04-23 16:40 | 40.78845 | -73.30890 | 6118 ft | 120 kts | 41° |
| 2026-04-23 16:40 | 40.79243 | -73.29891 | 6432 ft | 133 kts | 66° |
| 2026-04-23 16:40 | 40.79326 | -73.29082 | 6631 ft | 134 kts | 69° |
| 2026-04-23 16:40 | 40.79486 | -73.27856 | 6919 ft | 136 kts | 67° |
| 2026-04-23 16:41 | 40.79669 | -73.26549 | 6998 ft | 154 kts | 68° |
| 2026-04-23 16:41 | 40.79858 | -73.25110 | 7007 ft | 164 kts | 70° |
| 2026-04-23 16:41 | 40.80057 | -73.23590 | 7006 ft | 170 kts | 70° |
| 2026-04-23 16:41 | 40.80261 | -73.22042 | 7006 ft | 172 kts | 70° |
| 2026-04-23 16:42 | 40.80469 | -73.20481 | 7008 ft | 173 kts | 70° |
| 2026-04-23 16:42 | 40.80676 | -73.18933 | 7006 ft | 174 kts | 70° |
| 2026-04-23 16:42 | 40.80885 | -73.17346 | 7003 ft | 175 kts | 70° |
| 2026-04-23 16:42 | 40.81092 | -73.15761 | 7011 ft | 175 kts | 70° |
| 2026-04-23 16:43 | 40.81301 | -73.14177 | 7005 ft | 175 kts | 70° |
| 2026-04-23 16:43 | 40.81512 | -73.12594 | 7004 ft | 174 kts | 70° |
| 2026-04-23 16:43 | 40.81785 | -73.10508 | 7003 ft | 175 kts | 70° |
| 2026-04-23 16:43 | 40.81924 | -73.09453 | 7012 ft | 178 kts | 70° |
| 2026-04-23 16:44 | 40.82135 | -73.07834 | 7006 ft | 180 kts | 71° |
| 2026-04-23 16:44 | 40.82349 | -73.06198 | 7005 ft | 181 kts | 71° |
| 2026-04-23 16:44 | 40.82564 | -73.04552 | 7006 ft | 182 kts | 71° |
| 2026-04-23 16:44 | 40.82781 | -73.02894 | 7002 ft | 184 kts | 71° |
| 2026-04-23 16:45 | 40.82998 | -73.01229 | 7003 ft | 185 kts | 71° |
| 2026-04-23 16:45 | 40.83216 | -72.99557 | 7005 ft | 185 kts | 71° |
| 2026-04-23 16:45 | 40.83434 | -72.97882 | 7004 ft | 185 kts | 71° |
| 2026-04-23 16:45 | 40.83652 | -72.96211 | 7009 ft | 185 kts | 71° |
| 2026-04-23 16:46 | 40.83871 | -72.94534 | 7007 ft | 186 kts | 70° |
| 2026-04-23 16:46 | 40.84088 | -72.92851 | 7004 ft | 186 kts | 70° |
| 2026-04-23 16:46 | 40.84308 | -72.91169 | 7004 ft | 186 kts | 70° |
| 2026-04-23 16:46 | 40.84528 | -72.89485 | 7007 ft | 187 kts | 70° |
| 2026-04-23 16:47 | 40.84745 | -72.87797 | 7002 ft | 186 kts | 70° |
| 2026-04-23 16:47 | 40.84969 | -72.86108 | 7003 ft | 187 kts | 70° |
| 2026-04-23 16:47 | 40.85179 | -72.84441 | 7007 ft | 186 kts | 70° |
| 2026-04-23 16:47 | 40.85398 | -72.82746 | 7002 ft | 187 kts | 70° |
| 2026-04-23 16:48 | 40.85614 | -72.81048 | 7001 ft | 188 kts | 71° |
| 2026-04-23 16:48 | 40.85834 | -72.79356 | 7000 ft | 186 kts | 70° |
| 2026-04-23 16:48 | 40.86053 | -72.77669 | 7000 ft | 186 kts | 70° |
| 2026-04-23 16:48 | 40.86271 | -72.75973 | 7000 ft | 187 kts | 70° |
| 2026-04-23 16:49 | 40.86487 | -72.74287 | 6997 ft | 186 kts | 70° |
| 2026-04-23 16:49 | 40.86703 | -72.72603 | 6995 ft | 185 kts | 70° |
| 2026-04-23 16:49 | 40.86916 | -72.70927 | 6993 ft | 185 kts | 70° |
| 2026-04-23 16:49 | 40.87132 | -72.69252 | 6993 ft | 185 kts | 70° |
| 2026-04-23 16:50 | 40.87346 | -72.67574 | 6992 ft | 184 kts | 70° |
| 2026-04-23 16:50 | 40.87557 | -72.65924 | 7009 ft | 185 kts | 69° |
| 2026-04-23 16:50 | 40.87773 | -72.64226 | 7004 ft | 185 kts | 69° |
| 2026-04-23 16:50 | 40.87986 | -72.62550 | 7004 ft | 185 kts | 69° |
| 2026-04-23 16:51 | 40.88198 | -72.60887 | 7001 ft | 186 kts | 69° |
| 2026-04-23 16:51 | 40.88413 | -72.59201 | 7006 ft | 186 kts | 70° |
| 2026-04-23 16:51 | 40.88627 | -72.57509 | 7006 ft | 187 kts | 70° |
| 2026-04-23 16:51 | 40.88841 | -72.55818 | 7006 ft | 187 kts | 70° |
| 2026-04-23 16:52 | 40.89055 | -72.54125 | 7003 ft | 187 kts | 69° |
| 2026-04-23 16:52 | 40.89270 | -72.52432 | 7003 ft | 187 kts | 70° |
| 2026-04-23 16:52 | 40.89483 | -72.50736 | 7003 ft | 187 kts | 70° |
| 2026-04-23 16:52 | 40.89698 | -72.49037 | 7001 ft | 187 kts | 70° |
| 2026-04-23 16:53 | 40.89911 | -72.47340 | 7007 ft | 187 kts | 70° |
| 2026-04-23 16:53 | 40.90124 | -72.45645 | 7003 ft | 187 kts | 70° |
| 2026-04-23 16:53 | 40.90337 | -72.43950 | 6988 ft | 187 kts | 70° |
| 2026-04-23 16:53 | 40.90550 | -72.42251 | 6989 ft | 187 kts | 69° |
| 2026-04-23 16:54 | 40.90761 | -72.40566 | 6986 ft | 188 kts | 70° |
| 2026-04-23 16:54 | 40.90974 | -72.38861 | 6984 ft | 188 kts | 70° |
| 2026-04-23 16:54 | 40.91187 | -72.37158 | 6982 ft | 187 kts | 70° |
| 2026-04-23 16:54 | 40.91398 | -72.35465 | 6984 ft | 186 kts | 70° |
| 2026-04-23 16:55 | 40.91609 | -72.33777 | 6979 ft | 186 kts | 70° |
| 2026-04-23 16:55 | 40.91818 | -72.32095 | 6982 ft | 186 kts | 70° |
| 2026-04-23 16:55 | 40.92061 | -72.30428 | 6982 ft | 185 kts | 68° |
| 2026-04-23 16:55 | 40.92290 | -72.28742 | 6979 ft | 187 kts | 69° |
| 2026-04-23 16:56 | 40.92514 | -72.27049 | 6976 ft | 187 kts | 69° |
| 2026-04-23 16:56 | 40.92743 | -72.25388 | 6996 ft | 186 kts | 69° |
| 2026-04-23 16:56 | 40.92977 | -72.23705 | 6984 ft | 186 kts | 69° |
| 2026-04-23 16:56 | 40.93211 | -72.22021 | 6982 ft | 186 kts | 69° |
| 2026-04-23 16:57 | 40.93442 | -72.20344 | 6989 ft | 185 kts | 69° |
| 2026-04-23 16:57 | 40.93672 | -72.18671 | 6980 ft | 185 kts | 69° |
| 2026-04-23 16:57 | 40.93906 | -72.16995 | 6980 ft | 185 kts | 69° |
| 2026-04-23 16:57 | 40.94134 | -72.15316 | 6979 ft | 186 kts | 69° |
| 2026-04-23 16:58 | 40.94366 | -72.13636 | 6977 ft | 185 kts | 69° |
| 2026-04-23 16:58 | 40.94596 | -72.11961 | 6978 ft | 185 kts | 69° |
| 2026-04-23 16:58 | 40.94823 | -72.10289 | 6977 ft | 185 kts | 69° |
| 2026-04-23 16:58 | 40.95054 | -72.08615 | 6977 ft | 184 kts | 69° |
| 2026-04-23 16:59 | 40.95280 | -72.06966 | 6976 ft | 184 kts | 69° |
| 2026-04-23 16:59 | 40.95509 | -72.05296 | 6977 ft | 184 kts | 69° |
| 2026-04-23 16:59 | 40.95740 | -72.03626 | 6975 ft | 184 kts | 69° |
| 2026-04-23 16:59 | 40.95967 | -72.01959 | 6975 ft | 184 kts | 69° |
| 2026-04-23 17:00 | 40.96195 | -72.00295 | 6979 ft | 184 kts | 68° |
| 2026-04-23 17:00 | 40.96421 | -71.98627 | 6979 ft | 185 kts | 69° |
| 2026-04-23 17:00 | 40.96649 | -71.96948 | 6980 ft | 185 kts | 69° |
| 2026-04-23 17:00 | 40.96876 | -71.95276 | 6979 ft | 185 kts | 69° |
| 2026-04-23 17:01 | 40.97103 | -71.93605 | 6978 ft | 184 kts | 69° |
| 2026-04-23 17:01 | 40.97326 | -71.91960 | 6977 ft | 184 kts | 69° |
| 2026-04-23 17:01 | 40.97552 | -71.90292 | 6985 ft | 184 kts | 69° |
| 2026-04-23 17:01 | 40.97778 | -71.88625 | 6984 ft | 184 kts | 69° |
| 2026-04-23 17:02 | 40.97927 | -71.87524 | 6986 ft | 183 kts | 69° |
| 2026-04-23 17:02 | 40.98227 | -71.85299 | 6984 ft | 183 kts | 69° |
| 2026-04-23 17:02 | 40.98452 | -71.83638 | 6986 ft | 184 kts | 69° |
| 2026-04-23 17:02 | 40.98679 | -71.81953 | 6987 ft | 188 kts | 69° |
| 2026-04-23 17:03 | 40.98911 | -71.80227 | 6987 ft | 193 kts | 70° |
| 2026-04-23 17:03 | 40.99148 | -71.78458 | 6987 ft | 197 kts | 70° |
| 2026-04-23 17:03 | 40.99384 | -71.76686 | 6980 ft | 194 kts | 70° |
| 2026-04-23 17:03 | 40.99616 | -71.74951 | 6975 ft | 189 kts | 69° |
| 2026-04-23 17:04 | 40.99841 | -71.73275 | 6972 ft | 186 kts | 69° |
| 2026-04-23 17:04 | 41.00067 | -71.71593 | 6967 ft | 185 kts | 69° |
| 2026-04-23 17:04 | 41.00291 | -71.69919 | 6965 ft | 184 kts | 69° |
| 2026-04-23 17:04 | 41.00514 | -71.68243 | 6947 ft | 184 kts | 69° |
| 2026-04-23 17:05 | 41.00737 | -71.66573 | 6946 ft | 184 kts | 69° |
| 2026-04-23 17:05 | 41.00958 | -71.64907 | 6947 ft | 184 kts | 69° |
| 2026-04-23 17:05 | 41.01180 | -71.63242 | 6945 ft | 184 kts | 69° |
| 2026-04-23 17:05 | 41.01401 | -71.61580 | 6946 ft | 183 kts | 69° |
| 2026-04-23 17:06 | 41.01618 | -71.59944 | 6946 ft | 183 kts | 69° |
| 2026-04-23 17:06 | 41.01839 | -71.58276 | 6947 ft | 184 kts | 69° |
| 2026-04-23 17:06 | 41.02059 | -71.56609 | 6949 ft | 184 kts | 69° |
| 2026-04-23 17:06 | 41.02281 | -71.54936 | 6960 ft | 185 kts | 70° |
| 2026-04-23 17:07 | 41.02503 | -71.53251 | 6958 ft | 186 kts | 70° |
| 2026-04-23 17:07 | 41.02726 | -71.51564 | 6956 ft | 186 kts | 70° |
| 2026-04-23 17:07 | 41.02947 | -71.49878 | 6954 ft | 185 kts | 70° |
| 2026-04-23 17:07 | 41.03165 | -71.48221 | 6954 ft | 185 kts | 69° |
| 2026-04-23 17:08 | 41.03387 | -71.46543 | 6953 ft | 185 kts | 70° |
| 2026-04-23 17:08 | 41.03605 | -71.44870 | 6952 ft | 184 kts | 69° |
| 2026-04-23 17:08 | 41.03824 | -71.43199 | 6951 ft | 184 kts | 69° |
| 2026-04-23 17:08 | 41.04044 | -71.41533 | 6948 ft | 184 kts | 70° |
| 2026-04-23 17:09 | 41.04261 | -71.39862 | 6951 ft | 184 kts | 70° |
| 2026-04-23 17:09 | 41.04482 | -71.38192 | 6951 ft | 184 kts | 70° |
| 2026-04-23 17:09 | 41.04700 | -71.36522 | 6948 ft | 184 kts | 69° |
| 2026-04-23 17:09 | 41.04916 | -71.34856 | 6948 ft | 183 kts | 69° |
| 2026-04-23 17:10 | 41.05132 | -71.33188 | 6945 ft | 184 kts | 70° |
| 2026-04-23 17:10 | 41.05313 | -71.31511 | 6944 ft | 185 kts | 72° |
| 2026-04-23 17:10 | 41.05449 | -71.29804 | 6946 ft | 186 kts | 75° |
| 2026-04-23 17:10 | 41.05537 | -71.28088 | 6942 ft | 188 kts | 77° |
| 2026-04-23 17:11 | 41.05576 | -71.26378 | 6943 ft | 188 kts | 79° |
| 2026-04-23 17:11 | 41.05566 | -71.24636 | 6942 ft | 190 kts | 82° |
| 2026-04-23 17:11 | 41.05508 | -71.22874 | 6945 ft | 192 kts | 85° |
| 2026-04-23 17:11 | 41.05399 | -71.21098 | 6944 ft | 193 kts | 87° |
| 2026-04-23 17:12 | 41.05239 | -71.19324 | 6950 ft | 195 kts | 90° |
| 2026-04-23 17:12 | 41.05023 | -71.17540 | 6950 ft | 197 kts | 93° |
| 2026-04-23 17:12 | 41.04969 | -71.15777 | 6979 ft | 185 kts | 71° |
| 2026-04-23 17:12 | 41.05332 | -71.14214 | 7058 ft | 174 kts | 57° |
| 2026-04-23 17:13 | 41.05725 | -71.12710 | 7154 ft | 171 kts | 59° |
| 2026-04-23 17:13 | 41.06061 | -71.11222 | 7244 ft | 171 kts | 62° |
| 2026-04-23 17:13 | 41.06357 | -71.09699 | 7337 ft | 171 kts | 64° |
| 2026-04-23 17:13 | 41.06609 | -71.08157 | 7433 ft | 171 kts | 66° |
| 2026-04-23 17:14 | 41.06820 | -71.06601 | 7531 ft | 172 kts | 68° |
| 2026-04-23 17:14 | 41.06990 | -71.05021 | 7629 ft | 174 kts | 70° |
| 2026-04-23 17:14 | 41.07119 | -71.03415 | 7698 ft | 177 kts | 73° |
| 2026-04-23 17:14 | 41.07210 | -71.01756 | 7698 ft | 183 kts | 75° |
| 2026-04-23 17:15 | 41.07260 | -71.00044 | 7697 ft | 187 kts | 78° |
| 2026-04-23 17:15 | 41.07271 | -70.98246 | 7460 ft | 201 kts | 81° |
| 2026-04-23 17:15 | 41.07243 | -70.96353 | 7107 ft | 213 kts | 84° |
| 2026-04-23 17:15 | 41.07165 | -70.94387 | 6944 ft | 209 kts | 86° |
| 2026-04-23 17:16 | 41.07035 | -70.92501 | 6944 ft | 202 kts | 89° |
| 2026-04-23 17:16 | 41.06855 | -70.90675 | 6936 ft | 198 kts | 91° |
| 2026-04-23 17:16 | 41.06628 | -70.88878 | 6926 ft | 196 kts | 93° |
| 2026-04-23 17:16 | 41.06352 | -70.87112 | 6940 ft | 196 kts | 95° |
| 2026-04-23 17:17 | 41.06026 | -70.85357 | 6939 ft | 196 kts | 97° |
| 2026-04-23 17:17 | 41.05657 | -70.83642 | 6935 ft | 196 kts | 100° |
| 2026-04-23 17:17 | 41.05378 | -70.82475 | 6934 ft | 197 kts | 102° |
| 2026-04-23 17:17 | 41.04800 | -70.80198 | 6893 ft | 196 kts | 95° |
| 2026-04-23 17:18 | 41.04643 | -70.77392 | 6839 ft | 113 kts | 65° |
| 2026-04-23 17:18 | 41.04798 | -70.76384 | 6600 ft | 107 kts | 54° |
| 2026-04-23 17:18 | 41.05017 | -70.75452 | 6370 ft | 105 kts | 50° |
| 2026-04-23 17:19 | 41.05302 | -70.74517 | 5976 ft | 113 kts | 48° |
| 2026-04-23 17:19 | 41.05634 | -70.73587 | 5774 ft | 106 kts | 50° |
| 2026-04-23 17:19 | 41.05857 | -70.72658 | 5487 ft | 111 kts | 58° |
| 2026-04-23 17:19 | 41.06133 | -70.71726 | 5230 ft | 107 kts | 51° |
| 2026-04-23 17:20 | 41.06423 | -70.70823 | 5029 ft | 105 kts | 54° |
| 2026-04-23 17:20 | 41.06835 | -70.69031 | 4701 ft | 94 kts | 47° |
| 2026-04-23 17:21 | 41.07555 | -70.67495 | 4180 ft | 96 kts | 37° |
| 2026-04-23 17:21 | 41.07952 | -70.66806 | 4004 ft | 91 kts | 36° |
| 2026-04-23 17:21 | 41.08559 | -70.65239 | 3630 ft | 96 kts | 61° |
| 2026-04-23 17:22 | 41.08752 | -70.64413 | 3417 ft | 97 kts | 58° |
| 2026-04-23 17:22 | 41.09201 | -70.62700 | 2979 ft | 98 kts | 60° |
| 2026-04-23 17:23 | 41.09822 | -70.61560 | 1607 ft | 124 kts | 347° |
| 2026-04-23 17:23 | 41.10477 | -70.61616 | 1800 ft | 76 kts | 351° |
| 2026-04-23 17:23 | 41.11505 | -70.61011 | 386 ft | 141 kts | 36° |
| 2026-04-23 17:24 | 41.12189 | -70.60151 | 138 ft | 126 kts | 39° |
| 2026-04-23 17:24 | 41.12587 | -70.59627 | 24 ft | 116 kts | 40° |
| 2026-04-23 17:24 | 41.13618 | -70.58000 | 678 ft | 101 kts | 47° |
| 2026-04-23 17:25 | 41.14458 | -70.56753 | 398 ft | 83 kts | 19° |
| 2026-04-23 17:25 | 41.14969 | -70.56734 | 676 ft | 90 kts | 317° |
| 2026-04-23 17:26 | 41.15856 | -70.57734 | 618 ft | 101 kts | 306° |